createdAt,value
2018-03-06T00:00:44.636Z,-0.20
2018-03-06T00:03:54.741Z,-0.20
2018-03-06T00:07:04.360Z,-0.30
2018-03-06T00:10:14.844Z,-0.30
2018-03-06T00:13:26.076Z,-0.30
2018-03-06T00:16:35.885Z,-0.30
2018-03-06T00:19:45.868Z,-0.20
2018-03-06T00:22:55.774Z,-0.60
2018-03-06T00:26:06.050Z,-0.60
2018-03-06T00:29:15.901Z,-0.60
2018-03-06T00:32:26.483Z,-0.60
2018-03-06T00:35:36.653Z,-0.60
2018-03-06T00:38:46.893Z,-0.70
2018-03-06T00:41:57.441Z,-0.80
2018-03-06T00:45:07.894Z,-0.80
2018-03-06T00:48:17.871Z,-0.80
2018-03-06T00:51:27.847Z,-0.90
2018-03-06T00:54:37.896Z,-0.90
2018-03-06T00:57:48.212Z,-0.80
2018-03-06T01:00:58.279Z,-0.90
2018-03-06T01:04:09.036Z,-0.90
2018-03-06T01:07:19.239Z,-0.90
2018-03-06T01:10:29.145Z,-0.90
2018-03-06T01:13:39.871Z,-0.80
2018-03-06T01:16:49.949Z,-0.90
2018-03-06T01:20:00.826Z,-0.90
2018-03-06T01:23:11.233Z,-0.90
2018-03-06T01:26:21.329Z,-0.90
2018-03-06T01:29:31.929Z,-0.90
2018-03-06T01:32:42.862Z,-0.90
2018-03-06T01:35:53.613Z,-0.80
2018-03-06T01:39:04.630Z,-0.90
2018-03-06T01:42:15.477Z,-0.90
2018-03-06T01:45:25.799Z,-0.90
2018-03-06T01:48:36.021Z,-0.90
2018-03-06T01:51:57.819Z,-0.90
2018-03-06T01:55:09.531Z,-0.90
2018-03-06T01:58:20.165Z,-0.90
2018-03-06T02:01:30.226Z,-0.90
2018-03-06T02:04:40.559Z,-0.90
2018-03-06T02:07:50.699Z,-0.90
2018-03-06T02:11:01.778Z,-0.90
2018-03-06T02:14:12.127Z,-0.90
2018-03-06T02:17:23.038Z,-0.90
2018-03-06T02:20:33.978Z,-1.00
2018-03-06T02:23:44.493Z,-1.00
2018-03-06T02:26:54.807Z,-1.00
2018-03-06T02:30:05.816Z,-1.00
2018-03-06T02:33:16.093Z,-1.00
2018-03-06T02:36:26.243Z,-1.00
2018-03-06T02:39:36.489Z,-1.00
2018-03-06T02:42:46.675Z,-0.90
2018-03-06T02:46:07.984Z,-1.00
2018-03-06T02:49:19.380Z,-0.90
2018-03-06T02:52:30.540Z,-1.00
2018-03-06T02:55:41.806Z,-1.00
2018-03-06T02:58:53.175Z,-1.00
2018-03-06T03:02:04.246Z,-0.90
2018-03-06T03:05:15.346Z,-0.90
2018-03-06T03:08:26.690Z,-1.00
2018-03-06T03:11:36.680Z,-1.00
2018-03-06T03:14:46.898Z,-1.00
2018-03-06T03:17:57.009Z,-1.10
2018-03-06T03:21:08.521Z,-1.10
2018-03-06T03:24:18.386Z,-1.10
2018-03-06T03:27:28.575Z,-1.20
2018-03-06T03:30:39.401Z,-1.10
2018-03-06T03:33:51.033Z,-1.20
2018-03-06T03:37:01.132Z,-1.20
2018-03-06T03:40:11.389Z,-1.10
2018-03-06T03:43:22.272Z,-1.20
2018-03-06T03:46:32.560Z,-1.20
2018-03-06T03:49:43.505Z,-1.30
2018-03-06T03:52:54.339Z,-1.20
2018-03-06T03:56:04.363Z,-1.20
2018-03-06T03:59:15.003Z,-1.30
2018-03-06T04:02:25.020Z,-1.30
2018-03-06T04:05:35.593Z,-1.30
2018-03-06T04:08:45.951Z,-1.30
2018-03-06T04:11:56.692Z,-1.30
2018-03-06T04:15:06.536Z,-1.30
2018-03-06T04:18:16.850Z,-1.40
2018-03-06T04:21:27.896Z,-1.50
2018-03-06T04:24:38.061Z,-1.50
2018-03-06T04:27:48.600Z,-1.50
2018-03-06T04:31:00.557Z,-1.50
2018-03-06T04:34:11.538Z,-1.40
2018-03-06T04:37:21.970Z,-1.40
2018-03-06T04:40:31.955Z,-1.50
2018-03-06T04:43:42.580Z,-1.50
2018-03-06T04:46:52.402Z,-1.50
2018-03-06T04:50:03.128Z,-1.50
2018-03-06T04:53:13.026Z,-1.40
2018-03-06T04:56:23.627Z,-1.50
2018-03-06T04:59:33.797Z,-1.60
2018-03-06T05:02:44.070Z,-1.60
2018-03-06T05:05:55.019Z,-1.70
2018-03-06T05:09:04.886Z,-1.60
2018-03-06T05:12:16.366Z,-1.60
2018-03-06T05:15:26.948Z,-1.60
2018-03-06T05:18:38.866Z,-1.70
2018-03-06T05:21:49.523Z,-1.80
2018-03-06T05:25:00.479Z,-1.70
2018-03-06T05:28:11.316Z,-1.70
2018-03-06T05:31:22.146Z,-1.70
2018-03-06T05:34:32.647Z,-1.60
2018-03-06T05:37:42.746Z,-1.70
2018-03-06T05:40:52.987Z,-1.60
2018-03-06T05:44:03.146Z,-1.60
2018-03-06T05:47:13.595Z,-1.60
2018-03-06T05:50:23.997Z,-1.50
2018-03-06T05:53:36.202Z,-1.50
2018-03-06T05:56:46.611Z,-1.70
2018-03-06T05:59:57.517Z,-1.70
2018-03-06T06:03:08.583Z,-1.80
2018-03-06T06:06:19.655Z,-1.70
2018-03-06T06:09:29.671Z,-1.70
2018-03-06T06:12:40.514Z,-1.70
2018-03-06T06:15:51.073Z,-1.70
2018-03-06T06:19:01.621Z,-1.70
2018-03-06T06:22:11.511Z,-1.80
2018-03-06T06:25:21.261Z,-1.80
2018-03-06T06:28:32.492Z,-1.60
2018-03-06T06:31:42.639Z,-1.70
2018-03-06T06:34:54.042Z,-1.60
2018-03-06T06:38:03.981Z,-1.60
2018-03-06T06:41:14.395Z,-1.70
2018-03-06T06:44:25.317Z,-1.50
2018-03-06T06:47:35.551Z,-1.60
2018-03-06T06:50:46.142Z,-1.50
2018-03-06T06:53:56.666Z,-1.50
2018-03-06T06:57:06.600Z,-1.50
2018-03-06T07:00:17.313Z,-1.40
2018-03-06T07:03:28.451Z,-1.40
2018-03-06T07:06:38.616Z,-1.30
2018-03-06T07:09:49.359Z,-1.30
2018-03-06T07:13:00.098Z,-1.30
2018-03-06T07:16:09.911Z,-1.30
2018-03-06T07:19:19.903Z,-1.20
2018-03-06T07:22:31.070Z,-1.10
2018-03-06T07:25:41.835Z,-1.10
2018-03-06T07:28:52.950Z,-1.00
2018-03-06T07:32:04.371Z,-1.00
2018-03-06T07:35:14.985Z,-1.00
2018-03-06T07:38:25.544Z,-0.90
2018-03-06T07:41:37.686Z,-0.80
2018-03-06T07:44:49.406Z,-0.90
2018-03-06T07:47:59.665Z,-0.80
2018-03-06T07:51:10.080Z,-0.70
2018-03-06T07:54:20.329Z,-0.70
2018-03-06T07:57:31.248Z,-0.60
2018-03-06T08:00:41.941Z,-0.60
2018-03-06T08:03:52.275Z,-0.50
2018-03-06T08:07:03.146Z,-0.40
2018-03-06T08:10:13.397Z,-0.50
2018-03-06T08:13:23.560Z,-0.40
2018-03-06T08:16:34.006Z,-0.40
2018-03-06T08:19:44.895Z,-0.30
2018-03-06T08:22:55.951Z,-0.20
2018-03-06T08:26:06.229Z,-0.30
2018-03-06T08:29:17.247Z,-0.10
2018-03-06T08:32:28.487Z,-0.20
2018-03-06T08:35:45.450Z,-0.10
2018-03-06T08:38:55.288Z,-0.10
2018-03-06T08:42:06.241Z,0.00
2018-03-06T08:45:16.521Z,0.00
2018-03-06T08:48:28.039Z,0.20
2018-03-06T08:51:39.254Z,0.20
2018-03-06T08:54:53.784Z,0.10
2018-03-06T08:58:03.926Z,0.20
2018-03-06T09:01:15.150Z,0.30
2018-03-06T09:04:25.953Z,0.30
2018-03-06T09:07:36.476Z,0.30
2018-03-06T09:10:47.320Z,0.40
2018-03-06T09:13:57.881Z,0.40
2018-03-06T09:17:09.022Z,0.50
2018-03-06T09:20:19.634Z,0.50
2018-03-06T09:23:30.396Z,0.40
2018-03-06T09:26:40.495Z,0.40
2018-03-06T09:29:51.222Z,0.50
2018-03-06T09:33:01.657Z,0.60
2018-03-06T09:36:12.407Z,0.50
2018-03-06T09:39:22.271Z,0.60
2018-03-06T09:42:32.400Z,0.70
2018-03-06T09:45:42.500Z,0.70
2018-03-06T09:48:52.775Z,0.70
2018-03-06T09:52:02.879Z,0.80
2018-03-06T09:55:14.593Z,0.90
2018-03-06T09:58:24.750Z,0.90
2018-03-06T10:01:35.683Z,1.00
2018-03-06T10:04:46.105Z,1.00
2018-03-06T10:07:56.472Z,1.10
2018-03-06T10:11:07.263Z,1.10
2018-03-06T10:14:18.344Z,1.20
2018-03-06T10:17:28.753Z,1.20
2018-03-06T10:20:39.122Z,1.20
2018-03-06T10:23:49.627Z,1.20
2018-03-06T10:26:59.819Z,1.30
2018-03-06T10:30:09.888Z,1.30
2018-03-06T10:33:19.793Z,1.40
2018-03-06T10:36:29.800Z,1.40
2018-03-06T10:39:40.110Z,1.50
2018-03-06T10:42:50.971Z,1.70
2018-03-06T10:46:01.729Z,1.70
2018-03-06T10:49:12.428Z,1.80
2018-03-06T10:52:24.386Z,1.70
2018-03-06T10:55:34.164Z,1.70
2018-03-06T10:58:44.478Z,1.60
2018-03-06T11:01:57.950Z,1.70
2018-03-06T11:05:09.645Z,1.80
2018-03-06T11:08:20.527Z,2.00
2018-03-06T11:11:31.608Z,1.90
2018-03-06T11:14:43.395Z,1.90
2018-03-06T11:17:53.475Z,1.90
2018-03-06T11:21:03.831Z,1.80
2018-03-06T11:24:15.271Z,2.00
2018-03-06T11:27:25.167Z,2.00
2018-03-06T11:30:35.758Z,2.00
2018-03-06T11:33:46.182Z,2.00
2018-03-06T11:36:58.103Z,1.90
2018-03-06T11:40:08.570Z,2.00
2018-03-06T11:43:20.456Z,2.00
2018-03-06T11:46:31.222Z,2.00
2018-03-06T11:49:44.225Z,2.00
2018-03-06T11:52:54.291Z,1.90
2018-03-06T11:56:06.285Z,2.00
2018-03-06T11:59:15.886Z,2.00
2018-03-06T12:02:26.284Z,2.00
2018-03-06T12:05:36.982Z,2.10
2018-03-06T12:08:47.062Z,2.10
2018-03-06T12:11:57.031Z,2.00
2018-03-06T12:15:07.262Z,2.10
2018-03-06T12:18:17.413Z,2.00
2018-03-06T12:21:27.800Z,1.90
2018-03-06T12:24:39.459Z,1.80
2018-03-06T12:27:50.363Z,1.80
2018-03-06T12:31:00.582Z,1.80
2018-03-06T12:34:11.472Z,1.90
2018-03-06T12:37:21.548Z,1.60
2018-03-06T12:40:31.553Z,1.70
2018-03-06T12:43:41.750Z,1.80
2018-03-06T12:46:52.111Z,1.70
2018-03-06T12:50:03.677Z,1.70
2018-03-06T12:53:14.845Z,1.70
2018-03-06T12:56:25.289Z,1.70
2018-03-06T12:59:35.889Z,1.70
2018-03-06T13:02:46.566Z,1.70
2018-03-06T13:05:56.634Z,1.70
2018-03-06T13:09:06.679Z,1.80
2018-03-06T13:12:17.077Z,1.70
2018-03-06T13:15:27.103Z,1.70
2018-03-06T13:18:37.744Z,1.60
2018-03-06T13:21:48.389Z,1.60
2018-03-06T13:25:00.062Z,1.70
2018-03-06T13:28:11.166Z,1.70
2018-03-06T13:31:21.596Z,1.60
2018-03-06T13:34:31.780Z,1.70
2018-03-06T13:37:42.570Z,1.60
2018-03-06T13:40:52.519Z,1.60
2018-03-06T13:44:03.237Z,1.60
2018-03-06T13:47:13.973Z,1.60
2018-03-06T13:50:24.092Z,1.50
2018-03-06T13:53:34.497Z,1.50
2018-03-06T13:56:45.020Z,1.60
2018-03-06T13:59:55.452Z,1.60
2018-03-06T14:03:05.945Z,1.60
2018-03-06T14:06:17.243Z,1.60
2018-03-06T14:09:28.279Z,1.60
2018-03-06T14:12:38.638Z,1.60
2018-03-06T14:15:48.686Z,1.50
2018-03-06T14:18:59.538Z,1.60
2018-03-06T14:22:09.450Z,1.60
2018-03-06T14:25:19.455Z,1.60
2018-03-06T14:28:30.412Z,1.60
2018-03-06T14:31:41.814Z,1.60
2018-03-06T14:34:51.964Z,1.50
2018-03-06T14:38:03.338Z,1.60
2018-03-06T14:41:14.254Z,1.50
2018-03-06T14:44:25.083Z,1.60
2018-03-06T14:47:35.476Z,1.50
2018-03-06T14:50:45.766Z,1.60
2018-03-06T14:53:56.458Z,1.60
2018-03-06T14:57:07.961Z,1.60
2018-03-06T15:00:19.815Z,1.50
2018-03-06T15:03:30.579Z,1.50
2018-03-06T15:06:42.075Z,1.50
2018-03-06T15:09:52.860Z,1.50
2018-03-06T15:13:04.202Z,1.50
2018-03-06T15:16:14.640Z,1.50
2018-03-06T15:19:25.476Z,1.40
2018-03-06T15:22:36.303Z,1.40
2018-03-06T15:25:46.833Z,1.40
2018-03-06T15:28:57.786Z,1.30
2018-03-06T15:32:09.032Z,1.30
2018-03-06T15:35:19.662Z,1.30
2018-03-06T15:38:29.530Z,1.30
2018-03-06T15:41:40.714Z,1.20
2018-03-06T15:44:51.193Z,1.20
2018-03-06T15:48:01.850Z,1.20
2018-03-06T15:51:11.956Z,1.20
2018-03-06T15:54:22.080Z,1.10
2018-03-06T16:04:44.515Z,1.10
2018-03-06T16:07:55.495Z,1.10
2018-03-06T16:11:06.312Z,1.10
2018-03-06T16:14:17.381Z,1.00
2018-03-06T16:17:28.995Z,0.90
2018-03-06T16:20:39.479Z,0.90
2018-03-06T16:23:49.673Z,0.90
2018-03-06T16:26:59.487Z,0.90
2018-03-06T16:30:10.587Z,0.90
2018-03-06T16:33:21.495Z,0.90
2018-03-06T16:36:31.399Z,0.90
2018-03-06T16:39:41.315Z,0.90
2018-03-06T16:42:52.079Z,0.90
2018-03-06T16:56:49.570Z,0.80
2018-03-06T17:00:00.411Z,0.80
2018-03-06T17:03:10.263Z,0.80
2018-03-06T17:06:20.938Z,0.80
2018-03-06T17:09:31.569Z,0.80
2018-03-06T17:12:41.434Z,0.80
2018-03-06T17:15:52.250Z,0.80
2018-03-06T17:19:02.602Z,0.80
2018-03-06T17:22:13.310Z,0.80
2018-03-06T17:25:24.391Z,0.70
2018-03-06T17:28:34.862Z,0.70
2018-03-06T17:31:45.137Z,0.80
2018-03-06T17:34:55.057Z,0.80
2018-03-06T17:38:06.940Z,0.80
2018-03-06T17:41:18.210Z,0.80
2018-03-06T17:44:28.993Z,0.80
2018-03-06T17:47:40.497Z,0.70
2018-03-06T17:50:50.942Z,0.70
2018-03-06T17:54:01.193Z,0.70
2018-03-06T17:57:11.474Z,0.70
2018-03-06T18:00:21.808Z,0.70
2018-03-06T18:03:33.687Z,0.70
2018-03-06T18:06:44.001Z,0.70
2018-03-06T18:09:55.408Z,0.70
2018-03-06T18:13:05.667Z,0.70
2018-03-06T18:16:16.158Z,0.80
2018-03-06T18:19:26.306Z,0.70
2018-03-06T18:22:36.684Z,0.90
2018-03-06T18:25:53.144Z,0.90
2018-03-06T18:29:04.890Z,1.00
2018-03-06T18:32:21.219Z,1.00
2018-03-06T18:35:32.626Z,1.00
2018-03-06T18:38:43.712Z,1.00
2018-03-06T18:41:56.885Z,1.00
2018-03-06T18:45:10.945Z,1.00
2018-03-06T18:48:33.569Z,1.00
2018-03-06T18:51:45.717Z,1.00
2018-03-06T18:54:56.029Z,1.00
2018-03-06T18:58:06.763Z,1.00
2018-03-06T19:05:05.174Z,1.10
2018-03-06T19:08:14.561Z,1.00
2018-03-06T19:11:26.142Z,1.00
2018-03-06T19:14:36.103Z,1.00
2018-03-06T19:17:46.366Z,1.00
2018-03-06T19:20:57.147Z,1.10
2018-03-06T19:24:07.765Z,1.00
2018-03-06T19:27:21.538Z,1.00
2018-03-06T19:30:32.347Z,0.90
2018-03-06T19:33:43.300Z,0.80
2018-03-06T19:36:55.449Z,0.90
2018-03-06T19:40:05.779Z,0.90
2018-03-06T19:43:15.697Z,0.90
2018-03-06T19:46:31.572Z,0.90
2018-03-06T19:49:43.232Z,0.90
2018-03-06T19:52:54.304Z,0.90
2018-03-06T19:56:08.897Z,0.90
2018-03-06T19:59:24.478Z,0.90
2018-03-06T20:02:34.899Z,0.90
2018-03-06T20:05:45.956Z,0.90
2018-03-06T20:08:56.938Z,0.90
2018-03-06T20:12:07.333Z,0.90
2018-03-06T20:15:18.600Z,0.90
2018-03-06T20:18:29.709Z,0.70
2018-03-06T20:21:41.488Z,0.70
2018-03-06T20:24:58.827Z,0.80
2018-03-06T20:28:09.094Z,0.80
2018-03-06T20:31:26.634Z,0.80
2018-03-06T20:34:36.808Z,0.80
2018-03-06T20:37:46.715Z,0.80
2018-03-06T20:40:56.937Z,0.80
2018-03-06T20:44:08.119Z,0.80
2018-03-06T20:47:24.510Z,0.80
2018-03-06T20:50:35.682Z,0.80
2018-03-06T20:53:51.630Z,0.70
2018-03-06T20:57:02.593Z,0.70
2018-03-06T21:00:14.269Z,0.80
2018-03-06T21:03:24.799Z,0.70
2018-03-06T21:06:35.778Z,0.80
2018-03-06T21:09:46.532Z,0.80
2018-03-06T21:12:56.859Z,0.80
2018-03-06T21:16:08.522Z,0.80
2018-03-06T21:19:19.647Z,0.80
2018-03-06T21:22:30.218Z,0.80
2018-03-06T21:25:40.964Z,0.80
2018-03-06T21:28:51.481Z,0.90
2018-03-06T21:32:02.171Z,0.90
2018-03-06T21:35:14.014Z,0.90
2018-03-06T21:38:24.058Z,0.90
2018-03-06T21:41:34.978Z,0.80
2018-03-06T21:44:45.170Z,0.80
2018-03-06T21:47:56.056Z,0.70
2018-03-06T21:51:07.067Z,0.80
2018-03-06T21:54:17.771Z,0.80
2018-03-06T21:57:27.987Z,0.80
2018-03-06T22:00:38.688Z,0.80
2018-03-06T22:03:50.677Z,0.60
2018-03-06T22:07:01.224Z,0.50
2018-03-06T22:10:11.882Z,0.50
2018-03-06T22:13:23.623Z,0.40
2018-03-06T22:16:33.733Z,0.30
2018-03-06T22:19:44.527Z,0.30
2018-03-06T22:22:55.467Z,0.40
2018-03-06T22:26:06.262Z,0.40
2018-03-06T22:29:16.201Z,0.40
2018-03-06T22:32:26.273Z,0.40
2018-03-06T22:35:37.810Z,0.30
2018-03-06T22:38:49.247Z,0.30
2018-03-06T22:41:59.862Z,0.20
2018-03-06T22:45:10.918Z,0.30
2018-03-06T22:48:21.560Z,0.30
2018-03-06T22:51:31.731Z,0.40
2018-03-06T22:54:43.287Z,0.30
2018-03-06T22:57:53.607Z,0.30
2018-03-06T23:01:04.490Z,0.30
2018-03-06T23:04:14.752Z,0.30
2018-03-06T23:10:36.682Z,0.40
2018-03-06T23:13:46.721Z,0.40
2018-03-06T23:16:57.040Z,0.40
2018-03-06T23:20:08.992Z,0.30
2018-03-06T23:23:19.533Z,0.30
2018-03-06T23:26:31.026Z,0.20
2018-03-06T23:29:41.496Z,0.20
2018-03-06T23:32:51.812Z,0.20
2018-03-06T23:36:02.033Z,0.10
2018-03-06T23:39:11.796Z,0.10
2018-03-06T23:42:22.137Z,0.10
2018-03-06T23:45:32.151Z,0.00
2018-03-06T23:48:42.389Z,0.00
2018-03-06T23:51:53.119Z,0.00
2018-03-06T23:55:03.647Z,0.00
2018-03-06T23:58:14.313Z,0.00
